sensor_id;sensor_type;location;lat;lon;timestamp;temperature;humidity
24326;DHT22;12448;45.532;5.290;2024-01-07T00:01:31;3.80;99.90
24326;DHT22;12448;45.532;5.290;2024-01-07T00:03:57;3.70;99.90
24326;DHT22;12448;45.532;5.290;2024-01-07T00:06:22;3.80;99.90
24326;DHT22;12448;45.532;5.290;2024-01-07T00:08:48;3.80;99.90
24326;DHT22;12448;45.532;5.290;2024-01-07T00:11:14;3.90;99.90
24326;DHT22;12448;45.532;5.290;2024-01-07T00:13:39;3.90;99.90
24326;DHT22;12448;45.532;5.290;2024-01-07T00:16:05;3.80;99.90
24326;DHT22;12448;45.532;5.290;2024-01-07T00:18:31;3.80;99.90
24326;DHT22;12448;45.532;5.290;2024-01-07T00:20:56;3.80;99.90
24326;DHT22;12448;45.532;5.290;2024-01-07T00:23:22;3.70;99.90
24326;DHT22;12448;45.532;5.290;2024-01-07T00:25:48;3.70;99.90
24326;DHT22;12448;45.532;5.290;2024-01-07T00:28:14;3.70;99.90
24326;DHT22;12448;45.532;5.290;2024-01-07T00:30:39;3.70;99.90
24326;DHT22;12448;45.532;5.290;2024-01-07T00:33:05;3.70;99.90
24326;DHT22;12448;45.532;5.290;2024-01-07T00:35:30;3.70;99.90
24326;DHT22;12448;45.532;5.290;2024-01-07T00:37:56;3.90;99.90
24326;DHT22;12448;45.532;5.290;2024-01-07T00:40:25;3.70;99.90
24326;DHT22;12448;45.532;5.290;2024-01-07T00:42:52;3.70;99.90
24326;DHT22;12448;45.532;5.290;2024-01-07T00:45:18;4.20;99.90
24326;DHT22;12448;45.532;5.290;2024-01-07T00:47:43;3.80;99.90
24326;DHT22;12448;45.532;5.290;2024-01-07T00:50:09;3.80;99.90
24326;DHT22;12448;45.532;5.290;2024-01-07T00:52:35;3.80;99.90
24326;DHT22;12448;45.532;5.290;2024-01-07T00:55:03;3.80;99.90
24326;DHT22;12448;45.532;5.290;2024-01-07T00:57:29;3.80;99.90
24326;DHT22;12448;45.532;5.290;2024-01-07T00:59:55;3.70;99.90
24326;DHT22;12448;45.532;5.290;2024-01-07T01:02:21;3.70;99.90
24326;DHT22;12448;45.532;5.290;2024-01-07T01:04:48;3.80;99.90
24326;DHT22;12448;45.532;5.290;2024-01-07T01:07:14;3.70;99.90
24326;DHT22;12448;45.532;5.290;2024-01-07T01:09:39;3.70;99.90
24326;DHT22;12448;45.532;5.290;2024-01-07T01:12:05;3.80;99.90
24326;DHT22;12448;45.532;5.290;2024-01-07T01:14:31;3.80;99.90
24326;DHT22;12448;45.532;5.290;2024-01-07T01:16:57;3.80;99.90
24326;DHT22;12448;45.532;5.290;2024-01-07T01:19:23;3.90;99.90
24326;DHT22;12448;45.532;5.290;2024-01-07T01:21:49;4.10;99.90
24326;DHT22;12448;45.532;5.290;2024-01-07T01:24:14;3.90;99.90
24326;DHT22;12448;45.532;5.290;2024-01-07T01:26:40;3.90;99.90
24326;DHT22;12448;45.532;5.290;2024-01-07T01:29:06;3.80;99.90
24326;DHT22;12448;45.532;5.290;2024-01-07T01:31:31;3.80;99.90
24326;DHT22;12448;45.532;5.290;2024-01-07T01:33:57;3.80;99.90
24326;DHT22;12448;45.532;5.290;2024-01-07T01:36:22;3.80;99.90
24326;DHT22;12448;45.532;5.290;2024-01-07T01:38:48;3.80;99.90
24326;DHT22;12448;45.532;5.290;2024-01-07T01:41:14;3.80;99.90
24326;DHT22;12448;45.532;5.290;2024-01-07T01:43:40;3.80;99.90
24326;DHT22;12448;45.532;5.290;2024-01-07T01:46:06;3.80;99.90
24326;DHT22;12448;45.532;5.290;2024-01-07T01:48:32;3.80;99.90
24326;DHT22;12448;45.532;5.290;2024-01-07T01:50:58;3.90;99.90
24326;DHT22;12448;45.532;5.290;2024-01-07T01:53:25;4.10;99.90
24326;DHT22;12448;45.532;5.290;2024-01-07T01:55:52;3.90;99.90
24326;DHT22;12448;45.532;5.290;2024-01-07T01:58:19;4.00;99.90
24326;DHT22;12448;45.532;5.290;2024-01-07T02:00:45;4.00;99.90
24326;DHT22;12448;45.532;5.290;2024-01-07T02:03:11;4.00;99.90
24326;DHT22;12448;45.532;5.290;2024-01-07T02:05:37;4.10;99.90
24326;DHT22;12448;45.532;5.290;2024-01-07T02:08:03;4.00;99.90
24326;DHT22;12448;45.532;5.290;2024-01-07T02:10:29;4.10;99.90
24326;DHT22;12448;45.532;5.290;2024-01-07T02:13:00;4.10;99.90
24326;DHT22;12448;45.532;5.290;2024-01-07T02:15:26;4.10;99.90
24326;DHT22;12448;45.532;5.290;2024-01-07T02:17:51;4.00;99.90
24326;DHT22;12448;45.532;5.290;2024-01-07T02:20:17;4.10;99.90
24326;DHT22;12448;45.532;5.290;2024-01-07T02:22:43;4.10;99.90
24326;DHT22;12448;45.532;5.290;2024-01-07T02:25:08;4.10;99.90
24326;DHT22;12448;45.532;5.290;2024-01-07T02:27:34;4.10;99.90
24326;DHT22;12448;45.532;5.290;2024-01-07T02:30:00;4.10;99.90
24326;DHT22;12448;45.532;5.290;2024-01-07T02:32:25;4.10;99.90
24326;DHT22;12448;45.532;5.290;2024-01-07T02:34:52;4.00;99.90
24326;DHT22;12448;45.532;5.290;2024-01-07T02:37:17;4.00;99.90
24326;DHT22;12448;45.532;5.290;2024-01-07T02:39:43;4.00;99.90
24326;DHT22;12448;45.532;5.290;2024-01-07T02:42:10;4.10;99.90
24326;DHT22;12448;45.532;5.290;2024-01-07T02:44:35;4.00;99.90
24326;DHT22;12448;45.532;5.290;2024-01-07T02:47:01;4.00;99.90
24326;DHT22;12448;45.532;5.290;2024-01-07T02:49:28;4.40;99.90
24326;DHT22;12448;45.532;5.290;2024-01-07T02:51:53;4.00;99.90
24326;DHT22;12448;45.532;5.290;2024-01-07T02:54:19;4.00;99.90
24326;DHT22;12448;45.532;5.290;2024-01-07T02:56:45;3.90;99.90
24326;DHT22;12448;45.532;5.290;2024-01-07T02:59:10;4.00;99.90
24326;DHT22;12448;45.532;5.290;2024-01-07T03:01:36;3.90;99.90
24326;DHT22;12448;45.532;5.290;2024-01-07T03:04:06;3.90;99.90
24326;DHT22;12448;45.532;5.290;2024-01-07T03:06:33;4.40;99.90
24326;DHT22;12448;45.532;5.290;2024-01-07T03:08:59;4.00;99.90
24326;DHT22;12448;45.532;5.290;2024-01-07T03:11:24;4.00;99.90
24326;DHT22;12448;45.532;5.290;2024-01-07T03:13:50;4.00;99.90
24326;DHT22;12448;45.532;5.290;2024-01-07T03:16:22;4.00;99.90
24326;DHT22;12448;45.532;5.290;2024-01-07T03:18:48;4.00;99.90
24326;DHT22;12448;45.532;5.290;2024-01-07T03:21:20;4.00;99.90
24326;DHT22;12448;45.532;5.290;2024-01-07T03:23:47;3.90;99.90
24326;DHT22;12448;45.532;5.290;2024-01-07T03:26:13;3.90;99.90
24326;DHT22;12448;45.532;5.290;2024-01-07T03:28:39;3.90;99.90
24326;DHT22;12448;45.532;5.290;2024-01-07T03:31:18;3.90;99.90
24326;DHT22;12448;45.532;5.290;2024-01-07T03:33:44;3.90;99.90
24326;DHT22;12448;45.532;5.290;2024-01-07T03:36:14;3.90;99.90
24326;DHT22;12448;45.532;5.290;2024-01-07T03:38:40;3.90;99.90
24326;DHT22;12448;45.532;5.290;2024-01-07T03:41:06;3.90;99.90
24326;DHT22;12448;45.532;5.290;2024-01-07T03:43:32;3.90;99.90
24326;DHT22;12448;45.532;5.290;2024-01-07T03:45:58;3.90;99.90
24326;DHT22;12448;45.532;5.290;2024-01-07T03:48:24;3.90;99.90
24326;DHT22;12448;45.532;5.290;2024-01-07T03:50:49;3.90;99.90
24326;DHT22;12448;45.532;5.290;2024-01-07T03:53:16;3.90;99.90
24326;DHT22;12448;45.532;5.290;2024-01-07T03:55:41;3.90;99.90
24326;DHT22;12448;45.532;5.290;2024-01-07T03:58:07;3.90;99.90
24326;DHT22;12448;45.532;5.290;2024-01-07T04:00:33;3.90;99.90
24326;DHT22;12448;45.532;5.290;2024-01-07T04:03:00;4.10;99.90
24326;DHT22;12448;45.532;5.290;2024-01-07T04:05:25;3.90;99.90
24326;DHT22;12448;45.532;5.290;2024-01-07T04:07:51;3.80;99.90
24326;DHT22;12448;45.532;5.290;2024-01-07T04:10:17;3.80;99.90
24326;DHT22;12448;45.532;5.290;2024-01-07T04:12:43;3.70;99.90
24326;DHT22;12448;45.532;5.290;2024-01-07T04:15:10;3.70;99.90
24326;DHT22;12448;45.532;5.290;2024-01-07T04:17:35;3.70;99.90
24326;DHT22;12448;45.532;5.290;2024-01-07T04:20:01;3.60;99.90
24326;DHT22;12448;45.532;5.290;2024-01-07T04:22:26;3.70;99.90
24326;DHT22;12448;45.532;5.290;2024-01-07T04:24:52;3.60;99.90
24326;DHT22;12448;45.532;5.290;2024-01-07T04:27:18;3.60;99.90
24326;DHT22;12448;45.532;5.290;2024-01-07T04:29:43;3.60;99.90
24326;DHT22;12448;45.532;5.290;2024-01-07T04:32:09;3.60;99.90
24326;DHT22;12448;45.532;5.290;2024-01-07T04:34:34;3.60;99.90
24326;DHT22;12448;45.532;5.290;2024-01-07T04:37:00;3.60;99.90
24326;DHT22;12448;45.532;5.290;2024-01-07T04:39:26;3.60;99.90
24326;DHT22;12448;45.532;5.290;2024-01-07T04:41:51;3.50;99.90
24326;DHT22;12448;45.532;5.290;2024-01-07T04:44:17;3.50;99.90
24326;DHT22;12448;45.532;5.290;2024-01-07T04:46:43;3.50;99.90
24326;DHT22;12448;45.532;5.290;2024-01-07T04:49:08;3.50;99.90
24326;DHT22;12448;45.532;5.290;2024-01-07T04:51:34;3.50;99.90
24326;DHT22;12448;45.532;5.290;2024-01-07T04:53:59;3.60;99.90
24326;DHT22;12448;45.532;5.290;2024-01-07T04:56:25;3.50;99.90
24326;DHT22;12448;45.532;5.290;2024-01-07T04:58:51;3.50;99.90
24326;DHT22;12448;45.532;5.290;2024-01-07T05:01:16;3.70;99.90
24326;DHT22;12448;45.532;5.290;2024-01-07T05:03:42;3.50;99.90
24326;DHT22;12448;45.532;5.290;2024-01-07T05:06:11;3.50;99.90
24326;DHT22;12448;45.532;5.290;2024-01-07T05:08:37;3.50;99.90
24326;DHT22;12448;45.532;5.290;2024-01-07T05:11:03;3.50;99.90
24326;DHT22;12448;45.532;5.290;2024-01-07T05:13:29;3.50;99.90
24326;DHT22;12448;45.532;5.290;2024-01-07T05:15:55;3.50;99.90
24326;DHT22;12448;45.532;5.290;2024-01-07T05:18:22;3.40;99.90
24326;DHT22;12448;45.532;5.290;2024-01-07T05:20:48;3.50;99.90
24326;DHT22;12448;45.532;5.290;2024-01-07T05:23:14;3.50;99.90
24326;DHT22;12448;45.532;5.290;2024-01-07T05:25:41;3.40;99.90
24326;DHT22;12448;45.532;5.290;2024-01-07T05:28:07;3.40;99.90
24326;DHT22;12448;45.532;5.290;2024-01-07T05:30:33;3.40;99.90
24326;DHT22;12448;45.532;5.290;2024-01-07T05:32:58;3.30;99.90
24326;DHT22;12448;45.532;5.290;2024-01-07T05:35:24;3.30;99.90
24326;DHT22;12448;45.532;5.290;2024-01-07T05:37:49;3.40;99.90
24326;DHT22;12448;45.532;5.290;2024-01-07T05:40:15;3.30;99.90
24326;DHT22;12448;45.532;5.290;2024-01-07T05:42:40;3.20;99.90
24326;DHT22;12448;45.532;5.290;2024-01-07T05:45:06;3.20;99.90
24326;DHT22;12448;45.532;5.290;2024-01-07T05:47:32;3.20;99.90
24326;DHT22;12448;45.532;5.290;2024-01-07T05:49:58;3.30;99.90
24326;DHT22;12448;45.532;5.290;2024-01-07T05:52:23;3.30;99.90
24326;DHT22;12448;45.532;5.290;2024-01-07T05:54:49;3.30;99.90
24326;DHT22;12448;45.532;5.290;2024-01-07T05:57:15;3.30;99.90
24326;DHT22;12448;45.532;5.290;2024-01-07T05:59:40;3.30;99.90
24326;DHT22;12448;45.532;5.290;2024-01-07T06:02:06;3.30;99.90
24326;DHT22;12448;45.532;5.290;2024-01-07T06:04:32;3.20;99.90
24326;DHT22;12448;45.532;5.290;2024-01-07T06:06:57;3.20;99.90
24326;DHT22;12448;45.532;5.290;2024-01-07T06:09:23;3.20;99.90
24326;DHT22;12448;45.532;5.290;2024-01-07T06:11:50;3.20;99.90
24326;DHT22;12448;45.532;5.290;2024-01-07T06:14:16;3.30;99.90
24326;DHT22;12448;45.532;5.290;2024-01-07T06:16:41;3.20;99.90
24326;DHT22;12448;45.532;5.290;2024-01-07T06:19:08;3.20;99.90
24326;DHT22;12448;45.532;5.290;2024-01-07T06:21:33;3.20;99.90
24326;DHT22;12448;45.532;5.290;2024-01-07T06:23:59;3.20;99.90
24326;DHT22;12448;45.532;5.290;2024-01-07T06:26:24;3.20;99.90
24326;DHT22;12448;45.532;5.290;2024-01-07T06:28:50;3.20;99.90
24326;DHT22;12448;45.532;5.290;2024-01-07T06:31:15;3.20;99.90
24326;DHT22;12448;45.532;5.290;2024-01-07T06:33:41;3.20;99.90
24326;DHT22;12448;45.532;5.290;2024-01-07T06:36:07;3.10;99.90
24326;DHT22;12448;45.532;5.290;2024-01-07T06:38:33;3.10;99.90
24326;DHT22;12448;45.532;5.290;2024-01-07T06:40:59;3.10;99.90
24326;DHT22;12448;45.532;5.290;2024-01-07T06:43:30;3.10;99.90
24326;DHT22;12448;45.532;5.290;2024-01-07T06:45:56;3.10;99.90
24326;DHT22;12448;45.532;5.290;2024-01-07T06:48:21;3.10;99.90
24326;DHT22;12448;45.532;5.290;2024-01-07T06:50:47;3.00;99.90
24326;DHT22;12448;45.532;5.290;2024-01-07T06:53:12;3.00;99.90
24326;DHT22;12448;45.532;5.290;2024-01-07T06:55:39;3.00;99.90
24326;DHT22;12448;45.532;5.290;2024-01-07T06:58:04;2.90;99.90
24326;DHT22;12448;45.532;5.290;2024-01-07T07:00:30;2.90;99.90
24326;DHT22;12448;45.532;5.290;2024-01-07T07:02:56;3.00;99.90
24326;DHT22;12448;45.532;5.290;2024-01-07T07:05:21;3.00;99.90
24326;DHT22;12448;45.532;5.290;2024-01-07T07:07:47;3.00;99.90
24326;DHT22;12448;45.532;5.290;2024-01-07T07:10:13;3.00;99.90
24326;DHT22;12448;45.532;5.290;2024-01-07T07:12:38;3.00;99.90
24326;DHT22;12448;45.532;5.290;2024-01-07T07:15:04;2.90;99.90
24326;DHT22;12448;45.532;5.290;2024-01-07T07:17:30;2.90;99.90
24326;DHT22;12448;45.532;5.290;2024-01-07T07:19:55;2.90;99.90
24326;DHT22;12448;45.532;5.290;2024-01-07T07:22:21;2.90;99.90
24326;DHT22;12448;45.532;5.290;2024-01-07T07:24:46;2.90;99.90
24326;DHT22;12448;45.532;5.290;2024-01-07T07:27:12;2.90;99.90
24326;DHT22;12448;45.532;5.290;2024-01-07T07:29:37;2.80;99.90
24326;DHT22;12448;45.532;5.290;2024-01-07T07:32:03;2.80;99.90
24326;DHT22;12448;45.532;5.290;2024-01-07T07:34:29;2.70;99.90
24326;DHT22;12448;45.532;5.290;2024-01-07T07:36:54;2.80;99.90
24326;DHT22;12448;45.532;5.290;2024-01-07T07:39:21;2.80;99.90
24326;DHT22;12448;45.532;5.290;2024-01-07T07:41:46;2.80;99.90
24326;DHT22;12448;45.532;5.290;2024-01-07T07:44:13;2.90;99.90
24326;DHT22;12448;45.532;5.290;2024-01-07T07:46:39;2.80;99.90
24326;DHT22;12448;45.532;5.290;2024-01-07T07:49:04;2.80;99.90
24326;DHT22;12448;45.532;5.290;2024-01-07T07:51:30;2.80;99.90
24326;DHT22;12448;45.532;5.290;2024-01-07T07:53:56;2.80;99.90
24326;DHT22;12448;45.532;5.290;2024-01-07T07:56:22;2.80;99.90
24326;DHT22;12448;45.532;5.290;2024-01-07T07:58:48;2.80;99.90
24326;DHT22;12448;45.532;5.290;2024-01-07T08:01:14;2.80;99.90
24326;DHT22;12448;45.532;5.290;2024-01-07T08:03:39;2.80;99.90
24326;DHT22;12448;45.532;5.290;2024-01-07T08:06:05;2.80;99.90
24326;DHT22;12448;45.532;5.290;2024-01-07T08:08:31;2.80;99.90
24326;DHT22;12448;45.532;5.290;2024-01-07T08:10:56;2.80;99.90
24326;DHT22;12448;45.532;5.290;2024-01-07T08:13:22;2.80;99.90
24326;DHT22;12448;45.532;5.290;2024-01-07T08:15:47;2.70;99.90
24326;DHT22;12448;45.532;5.290;2024-01-07T08:18:13;2.80;99.90
24326;DHT22;12448;45.532;5.290;2024-01-07T08:20:38;2.70;99.90
24326;DHT22;12448;45.532;5.290;2024-01-07T08:23:04;2.70;99.90
24326;DHT22;12448;45.532;5.290;2024-01-07T08:25:31;2.80;99.90
24326;DHT22;12448;45.532;5.290;2024-01-07T08:27:57;2.80;99.90
24326;DHT22;12448;45.532;5.290;2024-01-07T08:30:23;2.90;99.90
24326;DHT22;12448;45.532;5.290;2024-01-07T08:32:49;2.80;99.90
24326;DHT22;12448;45.532;5.290;2024-01-07T08:35:14;2.80;99.90
24326;DHT22;12448;45.532;5.290;2024-01-07T08:37:40;2.80;99.90
24326;DHT22;12448;45.532;5.290;2024-01-07T08:40:06;2.70;99.90
24326;DHT22;12448;45.532;5.290;2024-01-07T08:42:35;2.80;99.90
24326;DHT22;12448;45.532;5.290;2024-01-07T08:45:01;2.80;99.90
24326;DHT22;12448;45.532;5.290;2024-01-07T08:47:26;2.80;99.90
24326;DHT22;12448;45.532;5.290;2024-01-07T08:49:52;2.80;99.90
24326;DHT22;12448;45.532;5.290;2024-01-07T08:52:19;3.20;99.90
24326;DHT22;12448;45.532;5.290;2024-01-07T08:54:45;2.80;99.90
24326;DHT22;12448;45.532;5.290;2024-01-07T08:57:10;2.80;99.90
24326;DHT22;12448;45.532;5.290;2024-01-07T08:59:36;2.80;99.90
24326;DHT22;12448;45.532;5.290;2024-01-07T09:02:01;2.80;99.90
24326;DHT22;12448;45.532;5.290;2024-01-07T09:04:28;2.70;99.90
24326;DHT22;12448;45.532;5.290;2024-01-07T09:06:53;2.70;99.90
24326;DHT22;12448;45.532;5.290;2024-01-07T09:09:19;2.70;99.90
24326;DHT22;12448;45.532;5.290;2024-01-07T09:11:44;2.70;99.90
24326;DHT22;12448;45.532;5.290;2024-01-07T09:14:11;2.70;99.90
24326;DHT22;12448;45.532;5.290;2024-01-07T09:16:36;2.70;99.90
24326;DHT22;12448;45.532;5.290;2024-01-07T09:19:02;2.60;99.90
24326;DHT22;12448;45.532;5.290;2024-01-07T09:21:27;2.60;99.90
24326;DHT22;12448;45.532;5.290;2024-01-07T09:23:53;2.70;99.90
24326;DHT22;12448;45.532;5.290;2024-01-07T09:26:19;2.70;99.90
24326;DHT22;12448;45.532;5.290;2024-01-07T09:28:44;2.70;99.90
24326;DHT22;12448;45.532;5.290;2024-01-07T09:31:10;2.70;99.90
24326;DHT22;12448;45.532;5.290;2024-01-07T09:33:35;2.80;99.90
24326;DHT22;12448;45.532;5.290;2024-01-07T09:36:01;2.80;99.90
24326;DHT22;12448;45.532;5.290;2024-01-07T09:38:27;2.80;99.90
24326;DHT22;12448;45.532;5.290;2024-01-07T09:40:52;2.70;99.90
24326;DHT22;12448;45.532;5.290;2024-01-07T09:43:21;2.80;99.90
24326;DHT22;12448;45.532;5.290;2024-01-07T09:45:47;2.70;99.90
24326;DHT22;12448;45.532;5.290;2024-01-07T09:48:15;2.70;99.90
24326;DHT22;12448;45.532;5.290;2024-01-07T09:50:42;2.70;99.90
24326;DHT22;12448;45.532;5.290;2024-01-07T09:53:14;2.70;99.90
24326;DHT22;12448;45.532;5.290;2024-01-07T09:56:01;2.80;99.90
24326;DHT22;12448;45.532;5.290;2024-01-07T09:58:27;2.70;99.90
24326;DHT22;12448;45.532;5.290;2024-01-07T10:00:54;2.80;99.90
24326;DHT22;12448;45.532;5.290;2024-01-07T10:03:20;2.80;99.90
24326;DHT22;12448;45.532;5.290;2024-01-07T10:05:45;2.80;99.90
24326;DHT22;12448;45.532;5.290;2024-01-07T10:08:11;2.70;99.90
24326;DHT22;12448;45.532;5.290;2024-01-07T10:10:37;2.70;99.90
24326;DHT22;12448;45.532;5.290;2024-01-07T10:13:03;3.00;99.90
24326;DHT22;12448;45.532;5.290;2024-01-07T10:15:29;2.70;99.90
24326;DHT22;12448;45.532;5.290;2024-01-07T10:17:55;2.70;99.90
24326;DHT22;12448;45.532;5.290;2024-01-07T10:20:21;2.90;99.90
24326;DHT22;12448;45.532;5.290;2024-01-07T10:22:50;2.80;99.90
24326;DHT22;12448;45.532;5.290;2024-01-07T10:25:15;2.80;99.90
24326;DHT22;12448;45.532;5.290;2024-01-07T10:27:41;2.80;99.90
24326;DHT22;12448;45.532;5.290;2024-01-07T10:30:07;2.80;99.90
24326;DHT22;12448;45.532;5.290;2024-01-07T10:32:35;2.80;99.90
24326;DHT22;12448;45.532;5.290;2024-01-07T10:35:03;2.80;99.90
24326;DHT22;12448;45.532;5.290;2024-01-07T10:37:30;2.80;99.90
24326;DHT22;12448;45.532;5.290;2024-01-07T10:39:59;2.70;99.90
24326;DHT22;12448;45.532;5.290;2024-01-07T10:42:30;2.70;99.90
24326;DHT22;12448;45.532;5.290;2024-01-07T10:44:57;3.30;99.90
24326;DHT22;12448;45.532;5.290;2024-01-07T10:47:23;2.80;99.90
24326;DHT22;12448;45.532;5.290;2024-01-07T10:49:50;2.90;99.90
24326;DHT22;12448;45.532;5.290;2024-01-07T10:52:16;2.80;99.90
24326;DHT22;12448;45.532;5.290;2024-01-07T10:54:44;2.80;99.90
24326;DHT22;12448;45.532;5.290;2024-01-07T10:57:32;2.70;99.90
24326;DHT22;12448;45.532;5.290;2024-01-07T11:00:00;2.80;99.90
24326;DHT22;12448;45.532;5.290;2024-01-07T11:02:26;2.80;99.90
24326;DHT22;12448;45.532;5.290;2024-01-07T11:05:08;2.80;99.90
24326;DHT22;12448;45.532;5.290;2024-01-07T11:07:46;2.80;99.90
24326;DHT22;12448;45.532;5.290;2024-01-07T11:10:22;2.90;99.90
24326;DHT22;12448;45.532;5.290;2024-01-07T11:12:55;2.90;99.90
24326;DHT22;12448;45.532;5.290;2024-01-07T11:18:20;2.80;99.90
24326;DHT22;12448;45.532;5.290;2024-01-07T11:20:46;2.90;99.90
24326;DHT22;12448;45.532;5.290;2024-01-07T11:23:43;2.80;99.90
24326;DHT22;12448;45.532;5.290;2024-01-07T11:26:08;2.80;99.90
24326;DHT22;12448;45.532;5.290;2024-01-07T11:28:55;2.70;99.90
24326;DHT22;12448;45.532;5.290;2024-01-07T11:34:08;2.80;99.90
24326;DHT22;12448;45.532;5.290;2024-01-07T11:36:37;2.80;99.90
24326;DHT22;12448;45.532;5.290;2024-01-07T11:39:04;2.80;99.90
24326;DHT22;12448;45.532;5.290;2024-01-07T11:41:33;2.80;99.90
24326;DHT22;12448;45.532;5.290;2024-01-07T11:43:59;2.80;99.90
24326;DHT22;12448;45.532;5.290;2024-01-07T11:46:26;2.80;99.90
24326;DHT22;12448;45.532;5.290;2024-01-07T11:48:57;2.90;99.90
24326;DHT22;12448;45.532;5.290;2024-01-07T11:51:28;2.90;99.90
24326;DHT22;12448;45.532;5.290;2024-01-07T11:53:56;2.90;99.90
24326;DHT22;12448;45.532;5.290;2024-01-07T11:56:22;2.80;99.90
24326;DHT22;12448;45.532;5.290;2024-01-07T11:58:49;2.90;99.90
24326;DHT22;12448;45.532;5.290;2024-01-07T12:01:15;2.90;99.90
24326;DHT22;12448;45.532;5.290;2024-01-07T12:03:43;2.90;99.90
24326;DHT22;12448;45.532;5.290;2024-01-07T12:06:09;2.80;99.90
24326;DHT22;12448;45.532;5.290;2024-01-07T12:08:44;2.80;99.90
24326;DHT22;12448;45.532;5.290;2024-01-07T12:11:14;2.80;99.90
24326;DHT22;12448;45.532;5.290;2024-01-07T12:13:40;2.80;99.90
24326;DHT22;12448;45.532;5.290;2024-01-07T12:16:07;2.70;99.90
24326;DHT22;12448;45.532;5.290;2024-01-07T12:18:35;2.80;99.90
24326;DHT22;12448;45.532;5.290;2024-01-07T12:21:01;2.80;99.90
24326;DHT22;12448;45.532;5.290;2024-01-07T12:23:27;2.80;99.90
24326;DHT22;12448;45.532;5.290;2024-01-07T12:25:53;2.80;99.90
24326;DHT22;12448;45.532;5.290;2024-01-07T12:28:19;2.80;99.90
24326;DHT22;12448;45.532;5.290;2024-01-07T12:30:47;2.80;99.90
24326;DHT22;12448;45.532;5.290;2024-01-07T12:33:17;2.90;99.90
24326;DHT22;12448;45.532;5.290;2024-01-07T12:35:45;2.80;99.90
24326;DHT22;12448;45.532;5.290;2024-01-07T12:38:10;3.10;99.90
24326;DHT22;12448;45.532;5.290;2024-01-07T12:40:36;2.80;99.90
24326;DHT22;12448;45.532;5.290;2024-01-07T12:43:02;2.70;99.90
24326;DHT22;12448;45.532;5.290;2024-01-07T12:45:27;2.70;99.90
24326;DHT22;12448;45.532;5.290;2024-01-07T12:47:53;2.70;99.90
24326;DHT22;12448;45.532;5.290;2024-01-07T12:50:21;2.70;99.90
24326;DHT22;12448;45.532;5.290;2024-01-07T12:52:48;2.70;99.90
24326;DHT22;12448;45.532;5.290;2024-01-07T12:55:14;3.20;99.90
24326;DHT22;12448;45.532;5.290;2024-01-07T12:57:39;2.60;99.90
24326;DHT22;12448;45.532;5.290;2024-01-07T13:00:06;2.60;99.90
24326;DHT22;12448;45.532;5.290;2024-01-07T13:02:32;2.60;99.90
24326;DHT22;12448;45.532;5.290;2024-01-07T13:04:58;2.60;99.90
24326;DHT22;12448;45.532;5.290;2024-01-07T13:07:24;2.60;99.90
24326;DHT22;12448;45.532;5.290;2024-01-07T13:09:51;2.60;99.90
24326;DHT22;12448;45.532;5.290;2024-01-07T13:12:16;2.60;99.90
24326;DHT22;12448;45.532;5.290;2024-01-07T13:14:42;2.60;99.90
24326;DHT22;12448;45.532;5.290;2024-01-07T13:17:08;2.60;99.90
24326;DHT22;12448;45.532;5.290;2024-01-07T13:19:34;2.60;99.90
24326;DHT22;12448;45.532;5.290;2024-01-07T13:21:59;2.60;99.90
24326;DHT22;12448;45.532;5.290;2024-01-07T13:24:26;2.60;99.90
24326;DHT22;12448;45.532;5.290;2024-01-07T13:26:53;2.70;99.90
24326;DHT22;12448;45.532;5.290;2024-01-07T13:29:18;2.60;99.90
24326;DHT22;12448;45.532;5.290;2024-01-07T13:31:44;2.60;99.90
24326;DHT22;12448;45.532;5.290;2024-01-07T13:34:10;3.00;99.90
24326;DHT22;12448;45.532;5.290;2024-01-07T13:36:35;2.50;99.90
24326;DHT22;12448;45.532;5.290;2024-01-07T13:39:01;2.60;99.90
24326;DHT22;12448;45.532;5.290;2024-01-07T13:41:27;2.60;99.90
24326;DHT22;12448;45.532;5.290;2024-01-07T13:43:54;2.60;99.90
24326;DHT22;12448;45.532;5.290;2024-01-07T13:46:21;2.60;99.90
24326;DHT22;12448;45.532;5.290;2024-01-07T13:48:48;2.50;99.90
24326;DHT22;12448;45.532;5.290;2024-01-07T13:51:14;2.60;99.90
24326;DHT22;12448;45.532;5.290;2024-01-07T13:53:40;2.50;99.90
24326;DHT22;12448;45.532;5.290;2024-01-07T13:56:06;2.50;99.90
24326;DHT22;12448;45.532;5.290;2024-01-07T13:58:32;2.60;99.90
24326;DHT22;12448;45.532;5.290;2024-01-07T14:00:58;2.60;99.90
24326;DHT22;12448;45.532;5.290;2024-01-07T14:03:23;2.60;99.90
24326;DHT22;12448;45.532;5.290;2024-01-07T14:05:49;2.60;99.90
24326;DHT22;12448;45.532;5.290;2024-01-07T14:08:16;2.60;99.90
24326;DHT22;12448;45.532;5.290;2024-01-07T14:10:42;2.80;99.90
24326;DHT22;12448;45.532;5.290;2024-01-07T14:13:08;2.50;99.90
24326;DHT22;12448;45.532;5.290;2024-01-07T14:15:34;2.50;99.90
24326;DHT22;12448;45.532;5.290;2024-01-07T14:18:00;2.40;99.90
24326;DHT22;12448;45.532;5.290;2024-01-07T14:20:25;2.40;99.90
24326;DHT22;12448;45.532;5.290;2024-01-07T14:22:54;2.40;99.90
24326;DHT22;12448;45.532;5.290;2024-01-07T14:25:19;2.40;99.90
24326;DHT22;12448;45.532;5.290;2024-01-07T14:27:45;2.50;99.90
24326;DHT22;12448;45.532;5.290;2024-01-07T14:30:13;2.50;99.90
24326;DHT22;12448;45.532;5.290;2024-01-07T14:32:39;2.90;99.90
24326;DHT22;12448;45.532;5.290;2024-01-07T14:35:05;2.50;99.90
24326;DHT22;12448;45.532;5.290;2024-01-07T14:37:31;2.50;99.90
24326;DHT22;12448;45.532;5.290;2024-01-07T14:39:56;2.40;99.90
24326;DHT22;12448;45.532;5.290;2024-01-07T14:42:22;2.80;99.90
24326;DHT22;12448;45.532;5.290;2024-01-07T14:44:48;2.90;99.90
24326;DHT22;12448;45.532;5.290;2024-01-07T14:47:14;2.50;99.90
24326;DHT22;12448;45.532;5.290;2024-01-07T14:49:40;2.50;99.90
24326;DHT22;12448;45.532;5.290;2024-01-07T14:52:06;2.40;99.90
24326;DHT22;12448;45.532;5.290;2024-01-07T14:54:31;2.50;99.90
24326;DHT22;12448;45.532;5.290;2024-01-07T14:56:58;2.40;99.90
24326;DHT22;12448;45.532;5.290;2024-01-07T14:59:24;2.40;99.90
24326;DHT22;12448;45.532;5.290;2024-01-07T15:01:49;2.50;99.90
24326;DHT22;12448;45.532;5.290;2024-01-07T15:04:15;2.50;99.90
24326;DHT22;12448;45.532;5.290;2024-01-07T15:06:43;2.60;99.90
24326;DHT22;12448;45.532;5.290;2024-01-07T15:09:12;2.60;99.90
24326;DHT22;12448;45.532;5.290;2024-01-07T15:11:39;2.60;99.90
24326;DHT22;12448;45.532;5.290;2024-01-07T15:14:10;2.50;99.90
24326;DHT22;12448;45.532;5.290;2024-01-07T15:16:35;2.50;99.90
24326;DHT22;12448;45.532;5.290;2024-01-07T15:19:02;2.50;99.90
24326;DHT22;12448;45.532;5.290;2024-01-07T15:21:27;2.50;99.90
24326;DHT22;12448;45.532;5.290;2024-01-07T15:23:53;2.40;99.90
24326;DHT22;12448;45.532;5.290;2024-01-07T15:26:19;2.40;99.90
24326;DHT22;12448;45.532;5.290;2024-01-07T15:28:44;2.40;99.90
24326;DHT22;12448;45.532;5.290;2024-01-07T15:31:10;2.40;99.90
24326;DHT22;12448;45.532;5.290;2024-01-07T15:33:35;2.40;99.90
24326;DHT22;12448;45.532;5.290;2024-01-07T15:36:04;2.40;99.90
24326;DHT22;12448;45.532;5.290;2024-01-07T15:38:30;2.50;99.90
24326;DHT22;12448;45.532;5.290;2024-01-07T15:40:55;2.40;99.90
24326;DHT22;12448;45.532;5.290;2024-01-07T15:43:21;2.40;99.90
24326;DHT22;12448;45.532;5.290;2024-01-07T15:45:47;2.50;99.90